createdAt,value
2022-08-20T00:00:42.692Z,15.23
2022-08-20T00:03:15.196Z,16.15
2022-08-20T00:05:45.497Z,15.55
2022-08-20T00:08:12.879Z,15.38
2022-08-20T00:10:42.023Z,15.77
2022-08-20T00:13:11.516Z,15.70
2022-08-20T00:15:42.585Z,15.65
2022-08-20T00:18:10.074Z,15.48
2022-08-20T00:20:43.002Z,15.35
2022-08-20T00:23:10.610Z,15.70
2022-08-20T00:25:38.102Z,14.68
2022-08-20T00:28:07.052Z,15.48
2022-08-20T00:30:35.568Z,15.32
2022-08-20T00:33:06.546Z,14.48
2022-08-20T00:35:36.709Z,15.68
2022-08-20T00:38:04.384Z,15.38
2022-08-20T00:40:46.924Z,15.02
2022-08-20T00:43:45.334Z,15.07
2022-08-20T00:46:18.478Z,14.20
2022-08-20T00:48:49.365Z,14.90
2022-08-20T00:51:36.269Z,15.05
2022-08-20T00:54:15.130Z,14.93
2022-08-20T00:56:45.588Z,14.80
2022-08-20T00:59:16.935Z,15.30
2022-08-20T01:01:55.637Z,15.90
2022-08-20T01:04:28.808Z,14.88
2022-08-20T01:06:56.082Z,15.38
2022-08-20T01:09:33.314Z,14.95
2022-08-20T01:12:11.673Z,14.52
2022-08-20T01:14:45.954Z,14.48
2022-08-20T01:17:17.806Z,14.52
2022-08-20T01:19:50.543Z,14.82
2022-08-20T01:22:44.137Z,15.02
2022-08-20T01:25:22.649Z,14.95
2022-08-20T01:27:53.217Z,14.82
2022-08-20T01:30:24.314Z,14.68
2022-08-20T01:32:51.105Z,15.20
2022-08-20T01:35:22.971Z,16.08
2022-08-20T01:37:49.693Z,15.98
2022-08-20T01:40:29.509Z,15.90
2022-08-20T01:42:58.889Z,16.25
2022-08-20T01:45:28.296Z,15.02
2022-08-20T01:47:58.247Z,15.05
2022-08-20T01:50:29.019Z,15.48
2022-08-20T01:53:18.510Z,16.00
2022-08-20T01:55:47.125Z,15.55
2022-08-20T01:58:13.938Z,14.00
2022-08-20T02:00:40.700Z,16.02
2022-08-20T02:03:08.765Z,15.15
2022-08-20T02:05:36.223Z,14.98
2022-08-20T02:08:04.999Z,14.90
2022-08-20T02:10:34.243Z,15.38
2022-08-20T02:13:01.235Z,15.25
2022-08-20T02:15:35.238Z,14.85
2022-08-20T02:18:08.410Z,15.55
2022-08-20T02:20:36.977Z,15.07
2022-08-20T02:23:05.243Z,14.80
2022-08-20T02:25:35.566Z,14.65
2022-08-20T02:28:06.498Z,14.95
2022-08-20T02:30:42.735Z,15.48
2022-08-20T02:33:12.421Z,15.02
2022-08-20T02:35:42.787Z,15.30
2022-08-20T02:38:10.774Z,14.52
2022-08-20T02:40:37.990Z,15.10
2022-08-20T02:43:05.369Z,15.85
2022-08-20T02:45:39.291Z,15.43
2022-08-20T02:48:06.031Z,15.75
2022-08-20T02:50:32.703Z,15.82
2022-08-20T02:52:59.508Z,15.10
2022-08-20T02:55:27.784Z,15.45
2022-08-20T02:58:00.378Z,16.10
2022-08-20T03:00:31.100Z,15.48
2022-08-20T03:03:06.371Z,15.00
2022-08-20T03:05:33.023Z,14.65
2022-08-20T03:07:59.925Z,14.65
2022-08-20T03:10:36.248Z,15.52
2022-08-20T03:13:04.450Z,15.30
2022-08-20T03:15:32.715Z,15.32
2022-08-20T03:18:02.041Z,15.65
2022-08-20T03:20:29.113Z,14.93
2022-08-20T03:22:56.238Z,14.70
2022-08-20T03:25:23.246Z,15.90
2022-08-20T03:27:54.283Z,14.23
2022-08-20T03:30:25.216Z,15.25
2022-08-20T03:32:52.298Z,13.55
2022-08-20T03:35:20.996Z,14.55
2022-08-20T03:37:50.869Z,14.85
2022-08-20T03:40:25.697Z,16.35
2022-08-20T03:42:57.160Z,14.30
2022-08-20T03:45:25.762Z,14.02
2022-08-20T03:47:53.449Z,14.25
2022-08-20T03:50:29.492Z,14.20
2022-08-20T03:52:57.121Z,13.95
2022-08-20T03:55:24.697Z,14.95
2022-08-20T03:58:00.738Z,14.52
2022-08-20T04:00:37.526Z,14.43
2022-08-20T04:03:05.808Z,14.35
2022-08-20T04:05:33.620Z,14.13
2022-08-20T04:08:03.060Z,15.25
2022-08-20T04:10:35.464Z,14.85
2022-08-20T04:13:02.244Z,14.60
2022-08-20T04:15:28.919Z,14.80
2022-08-20T04:17:55.817Z,14.52
2022-08-20T04:20:26.052Z,14.57
2022-08-20T04:22:58.720Z,14.88
2022-08-20T04:25:29.519Z,14.95
2022-08-20T04:27:58.789Z,14.00
2022-08-20T04:30:29.774Z,14.63
2022-08-20T04:32:56.797Z,15.07
2022-08-20T04:35:24.742Z,14.25
2022-08-20T04:37:59.315Z,14.75
2022-08-20T04:40:44.939Z,14.63
2022-08-20T04:43:12.430Z,14.88
2022-08-20T04:45:40.239Z,14.75
2022-08-20T04:48:11.715Z,15.07
2022-08-20T04:50:44.232Z,14.75
2022-08-20T04:53:12.967Z,14.93
2022-08-20T04:55:53.333Z,14.18
2022-08-20T04:58:33.865Z,15.27
2022-08-20T05:01:04.242Z,14.45
2022-08-20T05:03:31.966Z,14.98
2022-08-20T05:05:59.358Z,14.75
2022-08-20T05:08:26.554Z,14.50
2022-08-20T05:10:59.915Z,14.25
2022-08-20T05:13:42.918Z,12.95
2022-08-20T05:16:10.001Z,12.85
2022-08-20T05:18:37.321Z,12.63
2022-08-20T05:21:07.780Z,13.32
2022-08-20T05:23:36.428Z,12.80
2022-08-20T05:26:09.162Z,12.95
2022-08-20T05:28:52.816Z,13.35
2022-08-20T05:31:32.559Z,13.50
2022-08-20T05:34:10.743Z,13.45
2022-08-20T05:36:44.156Z,12.07
2022-08-20T05:39:11.297Z,12.68
2022-08-20T05:41:39.963Z,11.57
2022-08-20T05:44:13.511Z,11.48
2022-08-20T05:46:43.785Z,11.25
2022-08-20T05:49:14.319Z,10.82
2022-08-20T05:51:41.156Z,11.02
2022-08-20T05:54:08.186Z,11.35
2022-08-20T05:56:36.975Z,10.88
2022-08-20T05:59:07.450Z,10.70
2022-08-20T06:01:37.641Z,10.60
2022-08-20T06:04:23.596Z,9.27
2022-08-20T06:06:52.924Z,10.20
2022-08-20T06:09:31.017Z,9.80
2022-08-20T06:12:01.700Z,9.90
2022-08-20T06:14:30.277Z,9.52
2022-08-20T06:17:03.209Z,9.70
2022-08-20T06:19:34.333Z,9.40
2022-08-20T06:22:08.647Z,10.15
2022-08-20T06:24:46.086Z,9.77
2022-08-20T06:27:15.555Z,10.05
2022-08-20T06:29:42.221Z,10.23
2022-08-20T06:32:08.901Z,8.90
2022-08-20T06:34:35.707Z,8.80
2022-08-20T06:37:02.346Z,9.32
2022-08-20T06:39:31.217Z,9.55
2022-08-20T06:41:58.845Z,9.57
2022-08-20T06:44:29.141Z,9.23
2022-08-20T06:47:03.636Z,8.82
2022-08-20T06:49:35.292Z,9.20
2022-08-20T06:52:06.074Z,8.65
2022-08-20T06:54:34.388Z,9.27
2022-08-20T06:57:02.561Z,9.35
2022-08-20T06:59:29.367Z,8.77
2022-08-20T07:01:56.598Z,9.45
2022-08-20T07:04:28.305Z,9.88
2022-08-20T07:06:57.549Z,9.63
2022-08-20T07:09:26.101Z,9.45
2022-08-20T07:11:53.276Z,8.85
2022-08-20T07:14:20.739Z,8.88
2022-08-20T07:16:48.248Z,8.35
2022-08-20T07:19:17.930Z,9.18
2022-08-20T07:21:49.312Z,7.93
2022-08-20T07:24:15.994Z,8.32
2022-08-20T07:26:43.780Z,7.50
2022-08-20T07:29:11.583Z,7.68
2022-08-20T07:31:56.847Z,6.82
2022-08-20T07:34:27.863Z,8.02
2022-08-20T07:36:54.997Z,7.18
2022-08-20T07:39:21.682Z,7.80
2022-08-20T07:42:06.049Z,7.10
2022-08-20T07:44:32.724Z,7.28
2022-08-20T07:46:59.510Z,7.45
2022-08-20T07:49:26.255Z,6.85
2022-08-20T07:51:52.922Z,6.78
2022-08-20T07:54:19.530Z,7.55
2022-08-20T07:56:46.297Z,6.30
2022-08-20T07:59:16.202Z,6.65
2022-08-20T08:01:42.928Z,7.00
2022-08-20T08:04:09.612Z,6.65
2022-08-20T08:06:36.266Z,6.97
2022-08-20T08:09:09.231Z,6.97
2022-08-20T08:11:39.963Z,7.00
2022-08-20T08:14:09.841Z,7.18
2022-08-20T08:16:37.374Z,7.25
2022-08-20T08:19:07.000Z,7.80
2022-08-20T08:21:33.687Z,6.95
2022-08-20T08:24:00.605Z,7.32
2022-08-20T08:26:31.506Z,7.65
2022-08-20T08:29:02.559Z,8.13
2022-08-20T08:31:29.718Z,7.50
2022-08-20T08:33:59.827Z,7.68
2022-08-20T08:36:27.442Z,8.07
2022-08-20T08:38:55.162Z,7.60
2022-08-20T08:41:29.852Z,7.80
2022-08-20T08:46:27.940Z,7.55
2022-08-20T08:48:59.235Z,6.85
2022-08-20T08:51:50.132Z,8.00
2022-08-20T08:54:20.495Z,8.10
2022-08-20T08:56:49.761Z,7.65
2022-08-20T08:59:18.959Z,7.35
2022-08-20T09:01:54.085Z,7.50
2022-08-20T09:04:31.858Z,8.13
2022-08-20T09:07:02.920Z,7.45
2022-08-20T09:09:34.088Z,7.88
2022-08-20T09:12:19.181Z,14.05
2022-08-20T09:17:21.036Z,7.88
2022-08-20T09:19:47.782Z,7.95
2022-08-20T09:22:18.503Z,8.85
2022-08-20T09:27:36.540Z,9.93
2022-08-20T09:30:07.460Z,8.55
2022-08-20T09:32:39.525Z,8.57
2022-08-20T09:35:09.320Z,9.98
2022-08-20T09:37:38.113Z,9.65
2022-08-20T09:40:08.176Z,9.27
2022-08-20T09:42:41.065Z,9.15
2022-08-20T09:45:12.499Z,8.45
2022-08-20T09:47:43.827Z,9.75
2022-08-20T09:50:25.339Z,9.23
2022-08-20T09:52:53.995Z,9.02
2022-08-20T09:55:41.666Z,8.48
2022-08-20T09:58:13.265Z,8.35
2022-08-20T10:00:40.639Z,8.77
2022-08-20T10:03:07.839Z,9.45
2022-08-20T10:05:34.517Z,9.25
2022-08-20T10:08:01.133Z,9.13
2022-08-20T10:10:27.835Z,9.02
2022-08-20T10:12:55.176Z,9.02
2022-08-20T10:15:22.066Z,8.95
2022-08-20T10:17:50.295Z,8.68
2022-08-20T10:20:19.689Z,8.63
2022-08-20T10:22:46.991Z,8.35
2022-08-20T10:25:13.734Z,9.23
2022-08-20T10:27:41.675Z,8.77
2022-08-20T10:30:09.020Z,8.52
2022-08-20T10:32:37.463Z,8.25
2022-08-20T10:35:05.118Z,8.20
2022-08-20T10:37:31.838Z,8.48
2022-08-20T10:39:58.668Z,9.00
2022-08-20T10:42:25.441Z,8.50
2022-08-20T10:44:52.176Z,8.48
2022-08-20T10:47:25.640Z,8.10
2022-08-20T10:49:54.958Z,7.85
2022-08-20T10:52:22.283Z,8.73
2022-08-20T10:54:49.571Z,8.65
2022-08-20T10:57:21.518Z,8.98
2022-08-20T10:59:55.129Z,7.95
2022-08-20T11:02:22.941Z,8.32
2022-08-20T11:04:50.365Z,8.05
2022-08-20T11:07:49.843Z,7.35
2022-08-20T11:10:19.383Z,8.32
2022-08-20T11:12:46.858Z,8.38
2022-08-20T11:15:14.766Z,7.78
2022-08-20T11:17:43.358Z,8.20
2022-08-20T11:20:13.481Z,7.28
2022-08-20T11:22:42.331Z,8.35
2022-08-20T11:25:09.662Z,8.45
2022-08-20T11:27:43.102Z,8.45
2022-08-20T11:30:14.003Z,9.90
2022-08-20T11:32:40.673Z,9.95
2022-08-20T11:35:24.893Z,9.60
2022-08-20T11:37:56.939Z,10.70
2022-08-20T11:40:25.022Z,10.35
2022-08-20T11:43:13.727Z,11.40
2022-08-20T11:45:42.948Z,10.20
2022-08-20T11:48:09.744Z,9.93
2022-08-20T11:50:36.403Z,9.60
2022-08-20T11:53:03.104Z,9.77
2022-08-20T11:55:30.337Z,10.77
2022-08-20T11:58:00.314Z,9.38
2022-08-20T12:00:33.516Z,9.15
2022-08-20T12:03:06.628Z,9.57
2022-08-20T12:08:30.875Z,10.10
2022-08-20T12:11:03.428Z,10.10
2022-08-20T12:13:48.136Z,10.05
2022-08-20T12:16:20.237Z,9.90
2022-08-20T12:18:48.153Z,10.38
2022-08-20T12:21:15.253Z,9.80
2022-08-20T12:23:42.093Z,9.95
2022-08-20T12:26:09.692Z,9.88
2022-08-20T12:28:36.485Z,8.75
2022-08-20T12:31:07.701Z,9.93
2022-08-20T12:33:34.829Z,9.93
2022-08-20T12:36:01.564Z,10.10
2022-08-20T12:38:28.365Z,10.35
2022-08-20T12:40:55.019Z,10.43
2022-08-20T12:43:24.885Z,10.10
2022-08-20T12:45:52.395Z,10.10
2022-08-20T12:48:20.907Z,9.85
2022-08-20T12:50:53.724Z,11.00
2022-08-20T12:53:20.386Z,10.05
2022-08-20T12:55:47.937Z,9.88
2022-08-20T12:58:14.629Z,9.60
2022-08-20T13:00:46.490Z,9.43
2022-08-20T13:03:17.652Z,9.57
2022-08-20T13:05:44.526Z,9.73
2022-08-20T13:08:12.390Z,9.63
2022-08-20T13:10:45.973Z,10.43
2022-08-20T13:13:14.264Z,10.32
2022-08-20T13:15:41.799Z,10.63
2022-08-20T13:18:09.033Z,9.85
2022-08-20T13:20:36.495Z,9.70
2022-08-20T13:23:04.953Z,9.70
2022-08-20T13:25:31.920Z,10.40
2022-08-20T13:28:04.504Z,11.00
2022-08-20T13:30:38.439Z,9.95
2022-08-20T13:33:05.143Z,10.73
2022-08-20T13:35:32.169Z,10.48
2022-08-20T13:37:58.896Z,10.48
2022-08-20T13:40:26.036Z,10.30
2022-08-20T13:42:52.736Z,9.63
2022-08-20T13:45:19.628Z,9.65
2022-08-20T13:47:46.751Z,10.18
2022-08-20T13:50:19.152Z,9.73
2022-08-20T13:52:46.499Z,10.90
2022-08-20T13:55:18.855Z,10.32
2022-08-20T13:57:48.991Z,10.02
2022-08-20T14:00:20.965Z,10.50
2022-08-20T14:02:58.827Z,10.05
2022-08-20T14:05:25.601Z,9.32
2022-08-20T14:07:52.282Z,9.82
2022-08-20T14:10:24.342Z,9.90
2022-08-20T14:12:51.530Z,9.77
2022-08-20T14:15:19.221Z,10.20
2022-08-20T14:17:51.835Z,9.98
2022-08-20T14:20:21.940Z,10.20
2022-08-20T14:22:49.666Z,9.23
2022-08-20T14:25:18.307Z,9.27
2022-08-20T14:27:45.118Z,9.65
2022-08-20T14:30:19.689Z,9.98
2022-08-20T14:32:46.590Z,9.73
2022-08-20T14:35:16.445Z,9.52
2022-08-20T14:37:47.213Z,10.60
2022-08-20T14:40:17.563Z,10.18
2022-08-20T14:42:47.781Z,9.52
2022-08-20T14:45:18.990Z,10.32
2022-08-20T14:47:53.540Z,9.88
2022-08-20T14:50:33.673Z,11.15
2022-08-20T14:53:01.523Z,11.25
2022-08-20T14:55:31.401Z,10.70
2022-08-20T14:57:59.218Z,10.52
2022-08-20T15:00:30.167Z,9.35
2022-08-20T15:02:57.374Z,10.88
2022-08-20T15:05:26.787Z,10.70
2022-08-20T15:07:54.301Z,11.27
2022-08-20T15:10:30.001Z,10.15
2022-08-20T15:12:57.404Z,9.60
2022-08-20T15:15:25.075Z,10.60
2022-08-20T15:18:00.540Z,10.13
2022-08-20T15:20:31.126Z,10.27
2022-08-20T15:22:58.266Z,10.07
2022-08-20T15:25:36.600Z,10.35
2022-08-20T15:28:06.601Z,10.60
2022-08-20T15:30:33.653Z,10.10
2022-08-20T15:33:00.837Z,9.60
2022-08-20T15:35:28.718Z,9.98
2022-08-20T15:38:00.836Z,8.98
2022-08-20T15:40:31.024Z,9.27
2022-08-20T15:42:59.565Z,9.60
2022-08-20T15:45:27.142Z,10.20
2022-08-20T15:48:13.147Z,10.27
2022-08-20T15:51:01.988Z,10.00
2022-08-20T15:53:43.257Z,8.27
2022-08-20T15:56:22.365Z,8.52
2022-08-20T15:58:55.100Z,8.45
2022-08-20T16:01:39.651Z,9.48
2022-08-20T16:04:16.527Z,9.60
2022-08-20T16:06:47.555Z,8.98
2022-08-20T16:09:46.307Z,9.40
2022-08-20T16:12:23.041Z,8.07
2022-08-20T16:14:53.602Z,9.02
2022-08-20T16:17:32.017Z,8.30
2022-08-20T16:20:10.388Z,8.35
2022-08-20T16:22:46.105Z,8.55
2022-08-20T16:25:14.968Z,8.73
2022-08-20T16:27:44.568Z,8.93
2022-08-20T16:30:20.730Z,10.07
2022-08-20T16:33:01.055Z,9.52
2022-08-20T16:35:35.328Z,9.05
2022-08-20T16:38:21.112Z,8.68
2022-08-20T16:41:08.028Z,8.57
2022-08-20T16:43:46.364Z,9.35
2022-08-20T16:46:17.864Z,9.38
2022-08-20T16:48:54.905Z,9.48
2022-08-20T16:51:51.777Z,9.57
2022-08-20T16:54:28.453Z,9.05
2022-08-20T16:57:01.548Z,10.07
2022-08-20T16:59:28.963Z,9.57
2022-08-20T17:02:06.959Z,11.43
2022-08-20T17:04:50.470Z,10.77
2022-08-20T17:07:52.941Z,10.10
2022-08-20T17:10:30.078Z,10.55
2022-08-20T17:13:15.042Z,10.48
2022-08-20T17:15:43.950Z,11.18
2022-08-20T17:18:24.070Z,11.35
2022-08-20T17:20:50.843Z,12.13
2022-08-20T17:23:21.087Z,10.80
2022-08-20T17:26:02.510Z,12.95
2022-08-20T17:28:34.568Z,13.63
2022-08-20T17:31:02.645Z,12.18
2022-08-20T17:33:39.404Z,12.02
2022-08-20T17:36:22.291Z,10.48
2022-08-20T17:38:54.678Z,10.52
2022-08-20T17:41:34.371Z,10.98
2022-08-20T17:44:05.535Z,11.20
2022-08-20T17:46:42.457Z,9.77
2022-08-20T17:49:17.129Z,10.70
2022-08-20T17:51:55.158Z,10.55
2022-08-20T17:54:27.224Z,10.15
2022-08-20T17:56:59.767Z,10.25
2022-08-20T18:00:01.057Z,10.77
2022-08-20T18:02:27.761Z,13.02
2022-08-20T18:04:55.860Z,12.82
2022-08-20T18:07:39.502Z,10.80
2022-08-20T18:10:16.568Z,10.55
2022-08-20T18:12:56.520Z,10.77
2022-08-20T18:18:22.698Z,12.00
2022-08-20T18:21:12.823Z,12.00
2022-08-20T18:23:55.408Z,11.90
2022-08-20T18:26:28.124Z,12.15
2022-08-20T18:29:08.698Z,11.55
2022-08-20T18:31:55.286Z,12.00
2022-08-20T18:34:35.618Z,11.55
2022-08-20T18:40:22.459Z,11.50
2022-08-20T18:42:49.284Z,12.23
2022-08-20T18:45:29.243Z,11.57
2022-08-20T18:48:01.200Z,12.45
2022-08-20T18:50:40.164Z,13.38
2022-08-20T18:53:20.669Z,12.35
2022-08-20T18:56:02.427Z,11.45
2022-08-20T18:58:50.065Z,10.70
2022-08-20T19:01:20.568Z,11.23
2022-08-20T19:03:56.432Z,13.05
2022-08-20T19:06:29.354Z,13.27
2022-08-20T19:09:14.868Z,13.40
2022-08-20T19:11:59.966Z,12.40
2022-08-20T19:15:01.502Z,12.65
2022-08-20T19:18:00.565Z,13.70
2022-08-20T19:20:32.552Z,13.57
2022-08-20T19:23:14.831Z,13.80
2022-08-20T19:26:00.113Z,13.00
2022-08-20T19:30:53.412Z,13.27
2022-08-20T19:33:31.262Z,14.02
2022-08-20T19:36:16.126Z,15.00
2022-08-20T19:38:55.070Z,13.63
2022-08-20T19:41:30.955Z,12.23
2022-08-20T19:44:00.113Z,12.23
2022-08-20T19:46:31.145Z,11.80
2022-08-20T19:49:08.671Z,13.05
2022-08-20T19:51:48.007Z,12.10
2022-08-20T19:54:23.327Z,12.45
2022-08-20T19:56:51.084Z,13.07
2022-08-20T19:59:21.776Z,12.77
2022-08-20T20:02:00.172Z,13.60
2022-08-20T20:04:29.852Z,12.85
2022-08-20T20:06:58.408Z,13.55
2022-08-20T20:09:30.645Z,13.15
2022-08-20T20:12:02.841Z,17.30
2022-08-20T20:14:33.565Z,17.70
2022-08-20T20:17:03.850Z,18.75
2022-08-20T20:19:30.572Z,16.15
2022-08-20T20:22:19.004Z,17.13
2022-08-20T20:24:50.830Z,18.55
2022-08-20T20:27:24.411Z,18.52
2022-08-20T20:30:01.437Z,19.00
2022-08-20T20:32:30.461Z,18.75
2022-08-20T20:34:59.722Z,16.85
2022-08-20T20:37:48.834Z,16.95
2022-08-20T20:40:23.020Z,14.77
2022-08-20T20:43:05.856Z,13.85
2022-08-20T20:45:37.198Z,13.73
2022-08-20T20:48:14.602Z,13.40
2022-08-20T20:50:42.458Z,8.25
2022-08-20T20:53:09.365Z,6.25
2022-08-20T20:55:40.261Z,6.60
2022-08-20T20:58:07.043Z,3.83
2022-08-20T21:00:34.439Z,3.33
2022-08-20T21:03:02.641Z,3.25
2022-08-20T21:05:30.807Z,3.60
2022-08-20T21:08:03.381Z,3.22
2022-08-20T21:10:34.506Z,4.05
2022-08-20T21:13:03.852Z,3.95
2022-08-20T21:15:32.040Z,4.18
2022-08-20T21:18:01.313Z,3.70
2022-08-20T21:20:28.098Z,3.90
2022-08-20T21:22:57.381Z,4.30
2022-08-20T21:25:25.955Z,5.00
2022-08-20T21:27:54.897Z,5.63
2022-08-20T21:30:23.346Z,4.60
2022-08-20T21:32:50.769Z,4.55
2022-08-20T21:35:18.386Z,5.63
2022-08-20T21:37:45.136Z,5.15
2022-08-20T21:40:13.027Z,5.40
2022-08-20T21:42:41.002Z,5.95
2022-08-20T21:45:18.735Z,5.65
2022-08-20T21:47:49.577Z,5.43
2022-08-20T21:50:18.637Z,5.28
2022-08-20T21:52:55.304Z,5.60
2022-08-20T21:55:28.491Z,5.88
2022-08-20T21:57:55.558Z,5.03
2022-08-20T22:00:44.450Z,5.45
2022-08-20T22:03:13.318Z,5.75
2022-08-20T22:05:42.173Z,5.55
2022-08-20T22:08:09.670Z,5.10
2022-08-20T22:10:36.412Z,6.05
2022-08-20T22:13:03.622Z,5.55
2022-08-20T22:15:30.359Z,5.63
2022-08-20T22:17:57.026Z,5.22
2022-08-20T22:20:25.197Z,5.55
2022-08-20T22:22:51.945Z,6.05
2022-08-20T22:25:18.741Z,6.10
2022-08-20T22:27:47.901Z,5.55
2022-08-20T22:30:15.370Z,5.43
2022-08-20T22:32:52.164Z,6.07
2022-08-20T22:35:28.777Z,5.63
2022-08-20T22:37:55.490Z,6.00
2022-08-20T22:40:24.635Z,5.30
2022-08-20T22:42:51.821Z,5.47
2022-08-20T22:45:19.452Z,5.50
2022-08-20T22:47:49.028Z,5.65
2022-08-20T22:50:17.799Z,5.78
2022-08-20T22:52:47.903Z,6.30
2022-08-20T22:55:14.647Z,5.88
2022-08-20T22:57:41.653Z,5.53
2022-08-20T23:00:12.531Z,6.18
2022-08-20T23:02:42.079Z,5.53
2022-08-20T23:05:13.811Z,5.90
2022-08-20T23:07:42.504Z,5.10
2022-08-20T23:10:09.738Z,5.85
2022-08-20T23:12:36.506Z,5.63
2022-08-20T23:15:05.209Z,5.28
2022-08-20T23:17:32.158Z,5.93
2022-08-20T23:19:58.895Z,5.97
2022-08-20T23:22:27.827Z,5.55
2022-08-20T23:25:00.583Z,6.32
2022-08-20T23:27:28.258Z,6.40
2022-08-20T23:29:55.001Z,6.43
2022-08-20T23:32:21.642Z,6.30
2022-08-20T23:34:49.418Z,6.10
2022-08-20T23:37:19.272Z,7.18
2022-08-20T23:39:46.782Z,6.40
2022-08-20T23:42:14.389Z,6.30
2022-08-20T23:44:41.499Z,6.40
2022-08-20T23:47:09.613Z,6.15
2022-08-20T23:49:36.389Z,5.93
2022-08-20T23:52:03.662Z,5.55
2022-08-20T23:54:31.821Z,6.53
2022-08-20T23:56:59.008Z,5.97
2022-08-20T23:59:26.003Z,6.13
